createdAt,value
2024-02-27T00:01:22.306Z,6.70
2024-02-27T00:03:50.132Z,6.70
2024-02-27T00:06:18.211Z,6.80
2024-02-27T00:08:45.177Z,6.70
2024-02-27T00:11:14.913Z,6.80
2024-02-27T00:13:42.046Z,6.70
2024-02-27T00:16:09.305Z,6.70
2024-02-27T00:18:36.430Z,6.70
2024-02-27T00:21:03.575Z,6.70
2024-02-27T00:23:30.530Z,6.70
2024-02-27T00:25:57.464Z,6.70
2024-02-27T00:28:24.361Z,6.70
2024-02-27T00:30:51.311Z,6.70
2024-02-27T00:33:18.304Z,6.70
2024-02-27T00:35:45.413Z,6.70
2024-02-27T00:38:12.361Z,6.70
2024-02-27T00:40:39.443Z,6.70
2024-02-27T00:43:06.422Z,6.70
2024-02-27T00:45:33.427Z,6.70
2024-02-27T00:48:00.519Z,6.70
2024-02-27T00:50:30.158Z,6.70
2024-02-27T00:52:57.296Z,6.70
2024-02-27T00:55:24.317Z,6.70
2024-02-27T00:57:51.252Z,6.70
2024-02-27T01:00:19.612Z,6.70
2024-02-27T01:02:46.892Z,6.70
2024-02-27T01:05:15.027Z,6.70
2024-02-27T01:07:43.739Z,6.70
2024-02-27T01:10:10.821Z,6.70
2024-02-27T01:12:38.848Z,6.70
2024-02-27T01:15:06.464Z,6.70
2024-02-27T01:17:33.423Z,6.70
2024-02-27T01:20:00.534Z,6.70
2024-02-27T01:22:31.592Z,6.70
2024-02-27T01:25:00.411Z,6.70
2024-02-27T01:27:28.174Z,6.60
2024-02-27T01:29:55.561Z,6.60
2024-02-27T01:32:22.738Z,6.60
2024-02-27T01:34:50.077Z,6.60
2024-02-27T01:37:17.039Z,6.60
2024-02-27T01:39:43.959Z,6.60
2024-02-27T01:42:14.501Z,6.60
2024-02-27T01:44:59.668Z,6.40
2024-02-27T01:47:27.510Z,6.60
2024-02-27T01:49:54.580Z,6.60
2024-02-27T01:52:22.796Z,6.60
2024-02-27T01:54:52.803Z,6.60
2024-02-27T01:57:22.682Z,6.50
2024-02-27T01:59:49.802Z,6.50
2024-02-27T02:02:16.950Z,6.50
2024-02-27T02:04:44.104Z,6.50
2024-02-27T02:07:11.806Z,6.50
2024-02-27T02:09:38.915Z,6.40
2024-02-27T02:12:07.955Z,6.40
2024-02-27T02:14:35.434Z,6.40
2024-02-27T02:17:02.932Z,6.40
2024-02-27T06:11:08.564Z,5.60
2024-02-27T06:13:35.515Z,5.60
2024-02-27T06:18:29.937Z,5.60
2024-02-27T06:21:15.615Z,5.60
2024-02-27T06:23:43.994Z,5.60
2024-02-27T06:26:15.021Z,5.60
2024-02-27T06:28:43.502Z,5.60
2024-02-27T06:31:12.162Z,5.60
2024-02-27T06:33:39.269Z,5.60
2024-02-27T06:36:06.787Z,5.60
2024-02-27T06:38:33.787Z,5.60
2024-02-27T06:41:00.766Z,5.60
2024-02-27T06:43:27.772Z,5.60
2024-02-27T06:45:55.934Z,5.60
2024-02-27T06:48:22.993Z,5.60
2024-02-27T06:50:56.265Z,5.60
2024-02-27T06:53:25.355Z,5.60
2024-02-27T06:55:52.543Z,5.50
2024-02-27T06:58:19.701Z,5.50
2024-02-27T07:00:47.344Z,5.60
2024-02-27T07:03:14.451Z,5.60
2024-02-27T07:05:52.253Z,5.50
2024-02-27T07:08:22.126Z,5.50
2024-02-27T07:10:50.146Z,5.60
2024-02-27T07:13:19.391Z,5.60
2024-02-27T07:15:48.068Z,5.60
2024-02-27T07:18:19.259Z,5.50
2024-02-27T07:20:47.570Z,5.60
2024-02-27T07:23:14.863Z,5.60
2024-02-27T07:25:43.556Z,5.60
2024-02-27T07:28:17.388Z,5.60
2024-02-27T07:30:52.097Z,5.60
2024-02-27T07:33:19.394Z,5.60
2024-02-27T07:35:46.474Z,5.70
2024-02-27T07:38:13.868Z,5.60
2024-02-27T07:40:40.870Z,5.60
2024-02-27T07:43:07.838Z,5.60
2024-02-27T07:45:34.930Z,5.60
2024-02-27T07:48:02.797Z,5.60
2024-02-27T07:50:31.235Z,5.60
2024-02-27T07:53:00.281Z,5.70
2024-02-27T07:55:29.098Z,5.70
2024-02-27T07:57:56.176Z,5.70
2024-02-27T08:00:23.293Z,5.70
2024-02-27T08:02:53.582Z,5.70
2024-02-27T08:05:22.298Z,5.60
2024-02-27T08:07:49.455Z,5.60
2024-02-27T08:10:16.368Z,5.70
2024-02-27T08:12:44.766Z,5.70
2024-02-27T08:15:12.140Z,5.70
2024-02-27T08:17:41.064Z,5.70
2024-02-27T08:20:11.545Z,5.80
2024-02-27T08:22:39.805Z,5.90
2024-02-27T08:25:08.869Z,5.90
2024-02-27T08:27:36.860Z,5.90
2024-02-27T08:30:05.678Z,5.90
2024-02-27T08:32:32.913Z,5.90
2024-02-27T08:35:00.053Z,5.90
2024-02-27T08:37:28.421Z,5.90
2024-02-27T08:39:55.390Z,6.00
2024-02-27T08:42:22.419Z,6.00
2024-02-27T08:44:49.445Z,6.10
2024-02-27T08:47:16.469Z,6.10
2024-02-27T08:49:43.515Z,6.10
2024-02-27T08:52:10.590Z,6.10
2024-02-27T08:54:38.353Z,6.10
2024-02-27T08:57:06.015Z,6.00
2024-02-27T08:59:33.226Z,6.10
2024-02-27T09:02:00.342Z,6.00
2024-02-27T09:04:27.426Z,6.10
2024-02-27T09:06:54.753Z,6.10
2024-02-27T09:09:21.888Z,6.10
2024-02-27T09:11:50.113Z,6.20
2024-02-27T09:14:17.445Z,6.20
2024-02-27T09:16:44.727Z,6.20
2024-02-27T09:19:11.787Z,6.20
2024-02-27T09:21:38.901Z,6.30
2024-02-27T09:24:06.352Z,6.40
2024-02-27T09:26:33.336Z,6.40
2024-02-27T09:29:00.696Z,6.60
2024-02-27T09:31:31.775Z,6.60
2024-02-27T09:34:01.015Z,6.60
2024-02-27T09:36:28.288Z,6.60
2024-02-27T09:38:55.410Z,6.60
2024-02-27T09:41:52.878Z,6.50
2024-02-27T09:44:20.305Z,6.50
2024-02-27T09:46:50.985Z,6.50
2024-02-27T09:49:32.378Z,6.50
2024-02-27T09:52:06.748Z,6.50
2024-02-27T09:54:33.823Z,6.50
2024-02-27T09:57:01.739Z,6.50
2024-02-27T09:59:29.363Z,6.50
2024-02-27T10:02:10.040Z,6.50
2024-02-27T10:04:41.496Z,6.50
2024-02-27T10:07:12.635Z,6.50
2024-02-27T10:09:47.706Z,6.50
2024-02-27T10:12:15.940Z,6.50
2024-02-27T10:14:44.286Z,6.50
2024-02-27T10:17:11.368Z,6.60
2024-02-27T10:19:40.150Z,6.60
2024-02-27T10:22:07.419Z,6.60
2024-02-27T10:24:36.683Z,6.60
2024-02-27T10:27:09.846Z,6.60
2024-02-27T10:29:37.767Z,6.60
2024-02-27T10:32:07.209Z,6.60
2024-02-27T10:34:35.783Z,6.60
2024-02-27T10:37:06.232Z,6.60
2024-02-27T10:39:34.348Z,6.60
2024-02-27T10:42:02.773Z,6.60
2024-02-27T10:44:30.377Z,6.60
2024-02-27T10:47:00.757Z,6.60
2024-02-27T10:49:28.208Z,6.60
2024-02-27T10:51:56.081Z,6.60
2024-02-27T10:54:24.997Z,6.60
2024-02-27T10:56:53.392Z,6.60
2024-02-27T10:59:21.768Z,6.60
2024-02-27T11:01:49.486Z,6.70
2024-02-27T11:04:23.866Z,6.60
2024-02-27T11:06:52.265Z,6.50
2024-02-27T11:09:26.480Z,6.60
2024-02-27T11:12:08.615Z,6.70
2024-02-27T11:14:46.822Z,6.70
2024-02-27T11:17:24.035Z,6.60
2024-02-27T11:19:53.210Z,6.60
2024-02-27T11:22:25.162Z,6.70
2024-02-27T11:24:52.339Z,6.60
2024-02-27T11:27:23.565Z,6.70
2024-02-27T11:29:52.585Z,6.70
2024-02-27T11:32:20.976Z,6.70
2024-02-27T11:34:49.223Z,6.80
2024-02-27T11:37:23.422Z,6.80
2024-02-27T11:39:52.004Z,6.80
2024-02-27T11:42:33.464Z,6.90
2024-02-27T11:45:25.692Z,6.90
2024-02-27T11:47:53.876Z,6.90
2024-02-27T11:50:36.268Z,6.90
2024-02-27T11:53:18.630Z,6.90
2024-02-27T11:55:46.976Z,7.00
2024-02-27T11:58:14.922Z,6.90
2024-02-27T12:00:44.753Z,6.80
2024-02-27T12:03:12.465Z,6.90
2024-02-27T12:05:40.275Z,6.90
2024-02-27T12:08:07.659Z,6.90
2024-02-27T12:10:35.630Z,6.90
2024-02-27T12:13:03.352Z,6.90
2024-02-27T12:15:30.680Z,7.00
2024-02-27T12:17:57.878Z,7.00
2024-02-27T12:20:24.907Z,7.00
2024-02-27T12:22:52.177Z,7.00
2024-02-27T12:25:19.442Z,7.00
2024-02-27T12:27:47.665Z,7.00
2024-02-27T12:30:15.227Z,7.10
2024-02-27T12:32:46.066Z,7.20
2024-02-27T12:35:17.156Z,7.20
2024-02-27T12:37:48.970Z,7.20
2024-02-27T12:40:17.648Z,7.20
2024-02-27T12:42:46.385Z,7.20
2024-02-27T12:45:15.469Z,7.20
2024-02-27T12:47:48.541Z,7.20
2024-02-27T12:50:17.530Z,7.10
2024-02-27T12:52:52.627Z,7.10
2024-02-27T12:55:25.390Z,7.00
2024-02-27T12:57:56.412Z,7.00
2024-02-27T13:00:23.988Z,7.00
2024-02-27T13:02:55.352Z,7.00
2024-02-27T13:05:25.989Z,7.10
2024-02-27T13:07:56.580Z,7.20
2024-02-27T13:10:24.064Z,7.20
2024-02-27T13:13:19.856Z,7.20
2024-02-27T13:15:51.155Z,7.20
2024-02-27T13:18:20.459Z,7.30
2024-02-27T13:20:47.917Z,7.30
2024-02-27T13:23:24.806Z,7.30
2024-02-27T13:26:00.149Z,7.30
2024-02-27T13:28:31.458Z,7.30
2024-02-27T13:30:59.338Z,7.40
2024-02-27T13:33:27.961Z,7.40
2024-02-27T13:35:56.369Z,7.40
2024-02-27T13:38:24.795Z,7.40
2024-02-27T13:40:53.660Z,7.40
2024-02-27T13:43:20.767Z,7.50
2024-02-27T13:45:48.393Z,7.50
2024-02-27T13:48:15.520Z,7.50
2024-02-27T13:50:42.513Z,7.60
2024-02-27T13:53:13.561Z,7.50
2024-02-27T13:55:41.377Z,7.60
2024-02-27T13:58:08.502Z,7.50
2024-02-27T14:00:36.626Z,7.50
2024-02-27T14:03:04.605Z,7.50
2024-02-27T14:05:31.818Z,7.50
2024-02-27T14:07:58.931Z,7.50
2024-02-27T14:10:25.822Z,7.60
2024-02-27T14:12:52.874Z,7.50
2024-02-27T14:15:20.090Z,7.60
2024-02-27T14:17:47.202Z,7.60
2024-02-27T14:20:14.274Z,7.50
2024-02-27T14:22:41.177Z,7.60
2024-02-27T14:25:09.668Z,7.50
2024-02-27T14:27:36.701Z,7.60
2024-02-27T14:30:05.007Z,7.60
2024-02-27T14:32:32.154Z,7.60
2024-02-27T14:34:59.532Z,7.60
2024-02-27T14:37:26.602Z,7.70
2024-02-27T14:39:53.596Z,7.60
2024-02-27T14:42:20.678Z,7.70
2024-02-27T14:44:47.823Z,7.70
2024-02-27T14:47:16.368Z,7.70
2024-02-27T14:49:43.934Z,7.70
2024-02-27T14:52:11.145Z,7.70
2024-02-27T14:54:38.299Z,7.70
2024-02-27T14:57:05.579Z,7.70
2024-02-27T14:59:32.748Z,7.70
2024-02-27T15:02:03.576Z,7.60
2024-02-27T15:04:31.962Z,7.60
2024-02-27T15:06:59.138Z,7.60
2024-02-27T15:09:26.565Z,7.60
2024-02-27T15:11:53.575Z,7.60
2024-02-27T15:14:20.945Z,7.60
2024-02-27T15:16:48.350Z,7.50
2024-02-27T15:19:15.456Z,7.50
2024-02-27T15:21:43.167Z,7.50
2024-02-27T15:24:10.293Z,7.50
2024-02-27T15:26:37.252Z,7.50
2024-02-27T15:29:04.210Z,7.40
2024-02-27T15:31:31.155Z,7.40
2024-02-27T15:33:58.325Z,7.40
2024-02-27T15:36:25.323Z,7.40
2024-02-27T15:38:52.376Z,7.30
2024-02-27T15:41:19.522Z,7.30
2024-02-27T15:43:46.868Z,7.30
2024-02-27T15:46:15.057Z,7.30
2024-02-27T15:48:43.345Z,7.30
2024-02-27T15:51:13.016Z,7.20
2024-02-27T15:53:41.044Z,7.20
2024-02-27T15:56:08.910Z,7.20
2024-02-27T15:58:36.948Z,7.30
2024-02-27T16:01:04.653Z,7.30
2024-02-27T16:03:32.264Z,7.30
2024-02-27T16:06:01.153Z,7.20
2024-02-27T16:08:28.573Z,7.20
2024-02-27T16:10:56.946Z,7.20
2024-02-27T16:13:25.824Z,7.10
2024-02-27T16:15:52.832Z,7.10
2024-02-27T16:18:19.884Z,7.10
2024-02-27T16:20:47.255Z,7.10
2024-02-27T16:23:14.321Z,7.20
2024-02-27T16:25:41.281Z,7.20
2024-02-27T16:28:08.291Z,7.20
2024-02-27T16:30:35.348Z,7.10
2024-02-27T16:33:02.343Z,7.10
2024-02-27T16:35:29.965Z,7.10
2024-02-27T16:37:56.939Z,7.10
2024-02-27T16:40:23.861Z,7.00
2024-02-27T16:42:50.850Z,7.10
2024-02-27T16:45:18.192Z,7.10
2024-02-27T16:47:45.191Z,7.10
2024-02-27T16:50:12.506Z,7.10
2024-02-27T16:52:39.700Z,7.10
2024-02-27T16:55:07.294Z,7.10
2024-02-27T16:57:35.459Z,7.10
2024-02-27T17:00:03.580Z,7.00
2024-02-27T17:02:31.775Z,7.10
2024-02-27T17:04:58.683Z,7.30
2024-02-27T17:07:28.031Z,7.10
2024-02-27T17:09:55.436Z,7.10
2024-02-27T17:12:22.411Z,7.10
2024-02-27T17:14:49.539Z,7.00
2024-02-27T17:17:16.785Z,7.10
2024-02-27T17:19:44.182Z,7.10
2024-02-27T17:22:11.165Z,7.10
2024-02-27T17:24:38.697Z,7.00
2024-02-27T17:27:06.262Z,7.00
2024-02-27T17:29:33.202Z,7.00
2024-02-27T17:32:00.354Z,7.00
2024-02-27T17:34:27.847Z,6.90
2024-02-27T17:36:57.514Z,6.90
2024-02-27T17:39:24.741Z,6.90
2024-02-27T17:41:51.758Z,6.90
2024-02-27T17:44:19.163Z,6.90
2024-02-27T17:46:46.129Z,7.00
2024-02-27T17:49:14.189Z,6.90
2024-02-27T17:51:42.490Z,7.00
2024-02-27T17:54:10.611Z,7.00
2024-02-27T17:56:38.517Z,7.00
2024-02-27T17:59:05.475Z,7.00
2024-02-27T18:01:34.051Z,7.00
2024-02-27T18:04:01.586Z,7.00
2024-02-27T18:06:29.267Z,7.00
2024-02-27T18:08:57.831Z,7.00
2024-02-27T18:11:26.297Z,7.00
2024-02-27T18:13:55.559Z,7.00
2024-02-27T18:16:24.345Z,7.00
2024-02-27T18:18:51.646Z,7.00
2024-02-27T18:21:19.550Z,7.00
2024-02-27T18:23:46.443Z,7.00
2024-02-27T18:26:13.731Z,7.00
2024-02-27T18:28:40.671Z,6.90
2024-02-27T18:31:07.697Z,6.90
2024-02-27T18:33:35.029Z,6.90
2024-02-27T18:36:01.993Z,6.90
2024-02-27T18:38:30.808Z,6.90
2024-02-27T18:40:58.800Z,6.90
2024-02-27T18:43:25.919Z,7.00
2024-02-27T18:45:53.288Z,6.90
2024-02-27T18:48:20.427Z,7.00
2024-02-27T18:50:47.749Z,6.90
2024-02-27T18:53:16.630Z,6.90
2024-02-27T18:55:47.382Z,6.90
2024-02-27T18:58:15.023Z,6.90
2024-02-27T19:00:42.730Z,6.90
2024-02-27T19:03:10.566Z,6.90
2024-02-27T19:05:38.282Z,6.90
2024-02-27T19:08:07.707Z,6.80
2024-02-27T19:10:37.237Z,6.80
2024-02-27T19:13:10.241Z,6.80
2024-02-27T19:15:39.673Z,6.80
2024-02-27T19:18:06.724Z,6.80
2024-02-27T19:20:34.239Z,6.80
2024-02-27T19:23:01.398Z,6.80
2024-02-27T19:25:28.368Z,6.80
2024-02-27T19:27:56.754Z,6.80
2024-02-27T19:30:23.659Z,6.80
2024-02-27T19:32:50.599Z,6.90
2024-02-27T19:35:19.825Z,6.90
2024-02-27T19:37:48.668Z,6.90
2024-02-27T19:40:16.280Z,6.90
2024-02-27T19:42:44.781Z,6.90
2024-02-27T19:45:14.750Z,6.90
2024-02-27T19:47:45.113Z,6.90
2024-02-27T19:50:14.724Z,6.90
2024-02-27T19:52:46.153Z,6.90
2024-02-27T19:55:14.698Z,6.90
2024-02-27T19:57:43.581Z,6.90
2024-02-27T20:00:12.117Z,6.90
2024-02-27T20:02:39.380Z,6.90
2024-02-27T20:05:07.870Z,6.90
2024-02-27T20:07:35.091Z,6.90
2024-02-27T20:10:04.411Z,6.90
2024-02-27T20:12:32.588Z,6.90
2024-02-27T20:15:00.303Z,6.90
2024-02-27T20:17:31.247Z,6.90
2024-02-27T20:19:58.135Z,6.90
2024-02-27T20:22:26.579Z,6.90
2024-02-27T20:24:55.763Z,6.90
2024-02-27T20:27:23.399Z,6.90
2024-02-27T20:29:58.744Z,6.90
2024-02-27T20:32:28.846Z,6.90
2024-02-27T20:34:56.031Z,6.80
2024-02-27T20:37:23.458Z,6.80
2024-02-27T20:39:51.849Z,6.80
2024-02-27T20:42:22.824Z,6.80
2024-02-27T20:44:50.891Z,6.80
2024-02-27T20:47:19.715Z,6.80
2024-02-27T20:49:48.281Z,6.70
2024-02-27T20:52:16.038Z,6.70
2024-02-27T20:54:44.050Z,6.70
2024-02-27T20:57:12.449Z,6.70
2024-02-27T20:59:42.605Z,6.70
2024-02-27T21:02:09.577Z,6.80
2024-02-27T21:04:36.697Z,6.70
2024-02-27T21:07:04.260Z,6.70
2024-02-27T21:09:31.201Z,6.70
2024-02-27T21:11:58.154Z,6.70
2024-02-27T21:14:25.144Z,6.70
2024-02-27T21:16:52.091Z,6.70
2024-02-27T21:19:19.036Z,6.70
2024-02-27T21:21:47.775Z,6.70
2024-02-27T21:24:15.946Z,6.80
2024-02-27T21:26:42.943Z,6.70
2024-02-27T21:29:10.880Z,6.70
2024-02-27T21:31:37.783Z,6.80
2024-02-27T21:34:04.906Z,6.80
2024-02-27T21:36:33.379Z,6.70
2024-02-27T21:39:00.542Z,6.70
2024-02-27T21:41:27.421Z,6.70
2024-02-27T21:43:55.935Z,6.70
2024-02-27T21:46:22.932Z,6.70
2024-02-27T21:48:50.353Z,6.70
2024-02-27T21:51:18.035Z,6.70
2024-02-27T21:53:45.004Z,6.70
2024-02-27T21:56:12.011Z,6.70
2024-02-27T21:58:38.897Z,6.70
2024-02-27T22:01:06.297Z,6.70
2024-02-27T22:03:33.464Z,6.70
2024-02-27T22:06:00.560Z,6.70
2024-02-27T22:08:27.457Z,6.70
2024-02-27T22:10:54.367Z,6.60
2024-02-27T22:13:21.384Z,6.60
2024-02-27T22:15:49.223Z,6.60
2024-02-27T22:18:16.259Z,6.60
2024-02-27T22:20:43.274Z,6.60
2024-02-27T22:23:10.328Z,6.60
2024-02-27T22:25:37.280Z,6.60
2024-02-27T22:28:04.474Z,6.50
2024-02-27T22:30:31.423Z,6.50
2024-02-27T22:32:58.406Z,6.50
2024-02-27T22:35:25.319Z,6.50
2024-02-27T22:37:52.331Z,6.50
2024-02-27T22:40:19.271Z,6.50
2024-02-27T22:42:46.284Z,6.50
2024-02-27T22:45:13.252Z,6.50
2024-02-27T22:47:40.276Z,6.50
2024-02-27T22:50:07.469Z,6.60
2024-02-27T22:52:34.400Z,6.50
2024-02-27T22:55:01.321Z,6.60
2024-02-27T22:57:28.295Z,7.60
2024-02-27T22:59:55.223Z,6.60
2024-02-27T23:02:22.288Z,6.60
2024-02-27T23:04:50.907Z,6.60
2024-02-27T23:07:18.334Z,6.60
2024-02-27T23:09:45.393Z,6.60
2024-02-27T23:12:12.438Z,6.50
2024-02-27T23:14:39.530Z,6.50
2024-02-27T23:17:07.390Z,6.50
2024-02-27T23:19:34.646Z,6.50
2024-02-27T23:22:01.627Z,6.50
2024-02-27T23:24:28.612Z,6.60
2024-02-27T23:26:55.669Z,6.60
2024-02-27T23:29:23.328Z,6.60
2024-02-27T23:31:50.723Z,6.60
2024-02-27T23:34:18.010Z,6.60
2024-02-27T23:36:45.165Z,6.60
2024-02-27T23:39:12.212Z,6.60
2024-02-27T23:41:39.172Z,6.60
2024-02-27T23:44:06.141Z,6.60
2024-02-27T23:46:33.131Z,6.60
2024-02-27T23:49:00.106Z,6.60
2024-02-27T23:51:27.198Z,6.50
2024-02-27T23:53:54.384Z,6.60
2024-02-27T23:56:22.044Z,6.60
2024-02-27T23:58:49.180Z,6.60
